createdAt,value
2019-03-27T00:00:33.626Z,0
2019-03-27T00:01:34.317Z,0
2019-03-27T00:02:35.017Z,0
2019-03-27T00:03:35.690Z,0
2019-03-27T00:04:36.379Z,0
2019-03-27T00:05:37.073Z,0
2019-03-27T00:06:37.773Z,0
2019-03-27T00:07:38.449Z,0
2019-03-27T00:08:39.133Z,0
2019-03-27T00:09:39.821Z,0
2019-03-27T00:10:40.499Z,0
2019-03-27T00:11:41.186Z,0
2019-03-27T00:12:41.871Z,0
2019-03-27T00:13:42.556Z,0
2019-03-27T00:14:43.243Z,0
2019-03-27T00:15:43.930Z,0
2019-03-27T00:16:44.610Z,0
2019-03-27T00:17:45.301Z,0
2019-03-27T00:18:45.953Z,0
2019-03-27T00:19:46.632Z,0
2019-03-27T00:20:47.318Z,0
2019-03-27T00:21:47.967Z,0
2019-03-27T00:22:48.664Z,0
2019-03-27T00:23:49.343Z,0
2019-03-27T00:24:49.999Z,0
2019-03-27T00:25:50.685Z,0
2019-03-27T00:26:51.360Z,0
2019-03-27T00:27:52.051Z,0
2019-03-27T00:28:52.734Z,0
2019-03-27T00:29:53.418Z,0
2019-03-27T00:30:54.105Z,0
2019-03-27T00:31:54.787Z,0
2019-03-27T00:32:55.474Z,0
2019-03-27T00:33:56.162Z,0
2019-03-27T00:34:56.835Z,0
2019-03-27T00:35:57.519Z,0
2019-03-27T00:36:58.204Z,0
2019-03-27T00:37:58.883Z,0
2019-03-27T00:38:59.565Z,0
2019-03-27T00:40:00.352Z,0
2019-03-27T00:41:00.930Z,0
2019-03-27T00:42:01.613Z,0
2019-03-27T00:43:02.300Z,0
2019-03-27T00:44:02.985Z,0
2019-03-27T00:45:03.669Z,0
2019-03-27T00:46:04.353Z,0
2019-03-27T00:47:05.037Z,0
2019-03-27T00:48:05.694Z,0
2019-03-27T00:49:06.371Z,0
2019-03-27T00:50:07.060Z,0
2019-03-27T00:51:07.735Z,0
2019-03-27T00:52:08.418Z,0
2019-03-27T00:53:09.100Z,0
2019-03-27T00:54:09.780Z,0
2019-03-27T00:55:10.462Z,0
2019-03-27T00:56:11.148Z,0
2019-03-27T00:57:11.833Z,0
2019-03-27T00:58:12.510Z,0
2019-03-27T00:59:13.203Z,0
2019-03-27T01:00:13.885Z,0
2019-03-27T01:01:14.563Z,0
2019-03-27T01:02:15.247Z,0
2019-03-27T01:03:15.938Z,0
2019-03-27T01:04:16.615Z,0
2019-03-27T01:05:17.302Z,0
2019-03-27T01:06:18.285Z,0
2019-03-27T01:07:18.982Z,0
2019-03-27T01:08:19.649Z,0
2019-03-27T01:09:20.336Z,0
2019-03-27T01:10:21.024Z,0
2019-03-27T01:11:21.703Z,0
2019-03-27T01:12:22.385Z,0
2019-03-27T01:13:23.072Z,0
2019-03-27T01:14:23.754Z,0
2019-03-27T01:15:24.437Z,0
2019-03-27T01:16:25.128Z,0
2019-03-27T01:17:25.803Z,0
2019-03-27T01:18:26.533Z,0
2019-03-27T01:19:27.234Z,0
2019-03-27T01:20:27.917Z,0
2019-03-27T01:21:28.605Z,0
2019-03-27T01:22:29.288Z,0
2019-03-27T01:23:29.985Z,0
2019-03-27T01:24:30.656Z,0
2019-03-27T01:25:31.341Z,0
2019-03-27T01:26:32.176Z,0
2019-03-27T01:27:35.528Z,0
2019-03-27T01:28:33.538Z,0
2019-03-27T01:29:34.223Z,0
2019-03-27T01:30:34.911Z,0
2019-03-27T01:31:35.600Z,0
2019-03-27T01:32:36.285Z,0
2019-03-27T01:33:36.978Z,0
2019-03-27T01:34:37.653Z,0
2019-03-27T01:35:38.340Z,0
2019-03-27T01:36:39.023Z,0
2019-03-27T01:37:39.705Z,0
2019-03-27T01:38:40.407Z,0
2019-03-27T01:39:41.080Z,0
2019-03-27T01:40:41.760Z,0
2019-03-27T01:41:42.449Z,0
2019-03-27T01:42:43.127Z,0
2019-03-27T01:43:43.814Z,0
2019-03-27T01:44:44.504Z,0
2019-03-27T01:45:52.953Z,0
2019-03-27T01:46:45.869Z,0
2019-03-27T01:47:46.526Z,0
2019-03-27T01:48:47.209Z,0
2019-03-27T01:49:47.889Z,0
2019-03-27T01:50:48.573Z,0
2019-03-27T01:51:49.250Z,0
2019-03-27T01:52:49.937Z,0
2019-03-27T01:53:50.617Z,0
2019-03-27T01:54:51.306Z,0
2019-03-27T01:55:51.987Z,0
2019-03-27T01:56:52.670Z,0
2019-03-27T01:57:53.354Z,0
2019-03-27T01:58:54.038Z,0
2019-03-27T01:59:54.725Z,0
2019-03-27T02:00:55.412Z,0
2019-03-27T02:01:56.091Z,0
2019-03-27T02:02:56.777Z,0
2019-03-27T02:03:57.459Z,0
2019-03-27T02:04:58.141Z,0
2019-03-27T02:05:58.826Z,0
2019-03-27T02:06:59.513Z,0
2019-03-27T02:08:00.194Z,0
2019-03-27T02:09:00.878Z,0
2019-03-27T02:10:01.566Z,0
2019-03-27T02:11:02.244Z,0
2019-03-27T02:12:02.924Z,0
2019-03-27T02:13:03.606Z,0
2019-03-27T02:14:04.270Z,0
2019-03-27T02:15:04.951Z,0
2019-03-27T02:16:07.041Z,0
2019-03-27T02:17:06.309Z,0
2019-03-27T02:18:07.007Z,0
2019-03-27T02:19:07.694Z,0
2019-03-27T02:20:08.373Z,0
2019-03-27T02:21:09.060Z,0
2019-03-27T02:22:09.752Z,0
2019-03-27T02:23:10.428Z,0
2019-03-27T02:24:11.141Z,0
2019-03-27T02:25:11.826Z,0
2019-03-27T02:26:12.522Z,0
2019-03-27T02:27:13.202Z,0
2019-03-27T02:28:13.880Z,0
2019-03-27T02:29:14.602Z,0
2019-03-27T02:30:15.248Z,0
2019-03-27T02:31:15.928Z,0
2019-03-27T02:32:20.467Z,0
2019-03-27T02:33:17.291Z,0
2019-03-27T02:34:17.978Z,0
2019-03-27T02:35:18.694Z,0
2019-03-27T02:36:19.335Z,0
2019-03-27T02:37:20.023Z,0
2019-03-27T02:38:20.706Z,0
2019-03-27T02:39:21.395Z,0
2019-03-27T02:40:22.072Z,0
2019-03-27T02:41:22.755Z,0
2019-03-27T02:42:23.444Z,0
2019-03-27T02:43:24.126Z,0
2019-03-27T02:44:24.798Z,0
2019-03-27T02:45:25.464Z,0
2019-03-27T02:46:26.148Z,0
2019-03-27T02:47:26.821Z,0
2019-03-27T02:48:27.501Z,0
2019-03-27T02:49:28.184Z,0
2019-03-27T02:50:28.865Z,0
2019-03-27T02:51:29.552Z,0
2019-03-27T02:52:30.236Z,0
2019-03-27T02:53:30.889Z,0
2019-03-27T02:54:31.576Z,0
2019-03-27T02:55:32.256Z,0
2019-03-27T02:56:32.940Z,0
2019-03-27T02:57:33.618Z,0
2019-03-27T02:58:34.301Z,0
2019-03-27T02:59:35.019Z,0
2019-03-27T03:00:35.669Z,0
2019-03-27T03:01:36.358Z,0
2019-03-27T03:02:37.039Z,0
2019-03-27T03:03:37.719Z,0
2019-03-27T03:04:38.406Z,0
2019-03-27T03:05:39.085Z,0
2019-03-27T03:06:39.765Z,0
2019-03-27T03:07:40.449Z,0
2019-03-27T03:08:41.131Z,0
2019-03-27T03:09:41.810Z,0
2019-03-27T03:10:45.498Z,0
2019-03-27T03:11:43.146Z,0
2019-03-27T03:12:43.833Z,0
2019-03-27T03:13:44.512Z,0
2019-03-27T03:14:45.199Z,0
2019-03-27T03:15:45.879Z,0
2019-03-27T03:16:46.563Z,0
2019-03-27T03:17:47.243Z,0
2019-03-27T03:18:47.932Z,0
2019-03-27T03:19:48.619Z,0
2019-03-27T03:20:49.292Z,0
2019-03-27T03:21:49.986Z,0
2019-03-27T03:22:50.665Z,0
2019-03-27T03:23:51.347Z,0
2019-03-27T03:24:52.030Z,0
2019-03-27T03:25:52.710Z,0
2019-03-27T03:26:53.396Z,0
2019-03-27T03:27:54.077Z,0
2019-03-27T03:28:54.778Z,0
2019-03-27T03:29:55.443Z,0
2019-03-27T03:30:56.192Z,0
2019-03-27T03:31:56.813Z,0
2019-03-27T03:32:57.496Z,0
2019-03-27T03:33:58.168Z,0
2019-03-27T03:34:58.854Z,0
2019-03-27T03:35:59.533Z,0
2019-03-27T03:37:00.216Z,0
2019-03-27T03:38:00.902Z,0
2019-03-27T03:39:01.578Z,0
2019-03-27T03:40:02.289Z,0
2019-03-27T03:41:02.953Z,0
2019-03-27T03:42:03.643Z,0
2019-03-27T03:43:04.320Z,0
2019-03-27T03:44:05.005Z,0
2019-03-27T03:45:05.683Z,0
2019-03-27T03:46:06.367Z,0
2019-03-27T03:47:07.050Z,0
2019-03-27T03:48:07.755Z,0
2019-03-27T03:49:08.412Z,0
2019-03-27T03:50:09.098Z,0
2019-03-27T03:51:09.784Z,0
2019-03-27T03:52:10.462Z,0
2019-03-27T03:53:11.144Z,0
2019-03-27T03:54:11.836Z,0
2019-03-27T03:55:12.509Z,0
2019-03-27T03:56:13.190Z,0
2019-03-27T03:57:13.881Z,0
2019-03-27T03:58:14.559Z,0
2019-03-27T03:59:15.246Z,0
2019-03-27T04:00:15.938Z,0
2019-03-27T04:01:16.615Z,0
2019-03-27T04:02:17.310Z,0
2019-03-27T04:03:17.981Z,0
2019-03-27T04:04:18.630Z,0
2019-03-27T04:05:19.315Z,0
2019-03-27T04:06:20.000Z,0
2019-03-27T04:07:20.689Z,0
2019-03-27T04:08:21.362Z,0
2019-03-27T04:09:22.048Z,0
2019-03-27T04:10:22.736Z,0
2019-03-27T04:11:23.408Z,0
2019-03-27T04:12:24.091Z,0
2019-03-27T04:13:24.770Z,0
2019-03-27T04:14:25.460Z,0
2019-03-27T04:15:26.161Z,0
2019-03-27T04:16:26.803Z,0
2019-03-27T04:17:27.488Z,0
2019-03-27T04:18:28.175Z,0
2019-03-27T04:19:28.870Z,0
2019-03-27T04:20:29.542Z,0
2019-03-27T04:21:30.226Z,0
2019-03-27T04:22:30.910Z,0
2019-03-27T04:23:31.606Z,0
2019-03-27T04:24:32.266Z,0
2019-03-27T04:26:00.391Z,0
2019-03-27T04:26:33.796Z,0
2019-03-27T04:27:34.302Z,0
2019-03-27T04:28:34.994Z,0
2019-03-27T04:29:35.677Z,0
2019-03-27T04:30:36.363Z,0
2019-03-27T04:31:37.039Z,0
2019-03-27T04:32:37.719Z,0
2019-03-27T04:33:38.400Z,0
2019-03-27T04:34:39.095Z,0
2019-03-27T04:35:39.776Z,0
2019-03-27T04:36:40.465Z,0
2019-03-27T04:37:41.138Z,0
2019-03-27T04:38:41.822Z,0
2019-03-27T04:39:42.498Z,0
2019-03-27T04:40:43.178Z,0
2019-03-27T04:41:43.864Z,0
2019-03-27T04:42:44.545Z,0
2019-03-27T04:43:45.191Z,0
2019-03-27T04:44:45.872Z,0
2019-03-27T04:45:46.562Z,0
2019-03-27T04:46:47.236Z,0
2019-03-27T04:47:47.928Z,0
2019-03-27T04:48:48.601Z,0
2019-03-27T04:49:49.282Z,0
2019-03-27T04:50:49.967Z,0
2019-03-27T04:51:50.681Z,0
2019-03-27T04:52:51.369Z,0
2019-03-27T04:53:52.015Z,0
2019-03-27T04:54:52.698Z,0
2019-03-27T04:55:53.382Z,0
2019-03-27T04:56:54.066Z,0
2019-03-27T04:57:54.751Z,0
2019-03-27T04:58:55.429Z,0
2019-03-27T04:59:56.118Z,0
2019-03-27T05:00:56.802Z,0
2019-03-27T05:01:57.491Z,0
2019-03-27T05:02:58.170Z,0
2019-03-27T05:03:58.868Z,0
2019-03-27T05:04:59.543Z,0
2019-03-27T05:06:00.307Z,5
2019-03-27T05:07:00.907Z,5
2019-03-27T05:08:01.597Z,5
2019-03-27T05:09:02.288Z,5
2019-03-27T05:10:02.971Z,5
2019-03-27T05:11:03.652Z,5
2019-03-27T05:12:04.356Z,11
2019-03-27T05:13:05.030Z,11
2019-03-27T05:14:05.719Z,11
2019-03-27T05:15:06.402Z,11
2019-03-27T05:16:07.098Z,11
2019-03-27T05:17:07.777Z,11
2019-03-27T05:18:08.468Z,11
2019-03-27T05:19:09.154Z,11
2019-03-27T05:20:09.845Z,11
2019-03-27T05:21:10.530Z,11
2019-03-27T05:22:11.224Z,11
2019-03-27T05:23:11.904Z,11
2019-03-27T05:24:12.595Z,11
2019-03-27T05:25:13.281Z,16
2019-03-27T05:26:13.967Z,16
2019-03-27T05:27:14.652Z,16
2019-03-27T05:28:15.341Z,22
2019-03-27T05:29:16.033Z,22
2019-03-27T05:30:16.722Z,22
2019-03-27T05:31:17.404Z,22
2019-03-27T05:32:18.090Z,22
2019-03-27T05:33:18.778Z,28
2019-03-27T05:34:19.460Z,28
2019-03-27T05:35:20.146Z,28
2019-03-27T05:36:20.829Z,28
2019-03-27T05:37:21.523Z,28
2019-03-27T05:38:22.207Z,28
2019-03-27T05:39:22.899Z,28
2019-03-27T05:40:23.586Z,28
2019-03-27T05:41:24.282Z,28
2019-03-27T05:42:24.964Z,33
2019-03-27T05:43:25.655Z,33
2019-03-27T05:44:26.338Z,39
2019-03-27T05:45:27.029Z,39
2019-03-27T05:46:27.709Z,45
2019-03-27T05:47:28.406Z,45
2019-03-27T05:48:29.088Z,50
2019-03-27T05:49:29.778Z,50
2019-03-27T05:50:30.469Z,50
2019-03-27T05:51:31.156Z,56
2019-03-27T05:52:31.846Z,61
2019-03-27T05:53:32.535Z,56
2019-03-27T05:54:33.219Z,61
2019-03-27T05:55:33.907Z,61
2019-03-27T05:56:34.600Z,56
2019-03-27T05:57:35.289Z,56
2019-03-27T05:58:35.978Z,56
2019-03-27T05:59:36.665Z,56
2019-03-27T06:00:37.356Z,56
2019-03-27T06:01:38.038Z,67
2019-03-27T06:02:38.730Z,78
2019-03-27T06:03:39.423Z,73
2019-03-27T06:04:40.106Z,73
2019-03-27T06:05:40.800Z,73
2019-03-27T06:06:41.483Z,84
2019-03-27T06:07:42.173Z,84
2019-03-27T06:08:42.851Z,84
2019-03-27T06:09:43.538Z,90
2019-03-27T06:10:44.225Z,90
2019-03-27T06:11:44.911Z,90
2019-03-27T06:12:45.598Z,95
2019-03-27T06:13:46.285Z,106
2019-03-27T06:14:46.977Z,118
2019-03-27T06:15:47.654Z,123
2019-03-27T06:16:48.342Z,123
2019-03-27T06:17:49.033Z,112
2019-03-27T06:18:49.725Z,106
2019-03-27T06:19:50.404Z,112
2019-03-27T06:20:51.091Z,118
2019-03-27T06:21:51.777Z,118
2019-03-27T06:22:52.478Z,118
2019-03-27T06:23:53.157Z,118
2019-03-27T06:24:53.847Z,123
2019-03-27T06:25:54.527Z,135
2019-03-27T06:26:55.212Z,135
2019-03-27T06:27:55.911Z,129
2019-03-27T06:28:56.596Z,123
2019-03-27T06:29:57.286Z,129
2019-03-27T06:30:57.966Z,135
2019-03-27T06:31:58.655Z,135
2019-03-27T06:32:59.340Z,129
2019-03-27T06:34:00.029Z,129
2019-03-27T06:35:00.723Z,123
2019-03-27T06:36:01.424Z,112
2019-03-27T06:37:02.111Z,112
2019-03-27T06:38:02.794Z,112
2019-03-27T06:39:03.482Z,106
2019-03-27T06:40:04.169Z,112
2019-03-27T06:41:04.855Z,112
2019-03-27T06:42:05.551Z,106
2019-03-27T06:43:06.236Z,95
2019-03-27T06:44:06.922Z,101
2019-03-27T06:45:07.606Z,129
2019-03-27T06:46:08.296Z,163
2019-03-27T06:47:08.985Z,168
2019-03-27T06:48:09.676Z,174
2019-03-27T06:49:10.359Z,185
2019-03-27T06:50:11.043Z,185
2019-03-27T06:51:11.738Z,196
2019-03-27T06:52:12.426Z,196
2019-03-27T06:53:13.112Z,151
2019-03-27T06:54:13.801Z,135
2019-03-27T06:55:14.490Z,163
2019-03-27T06:56:15.177Z,208
2019-03-27T06:57:15.870Z,230
2019-03-27T06:58:16.521Z,258
2019-03-27T06:59:17.210Z,236
2019-03-27T07:00:17.896Z,253
2019-03-27T07:01:18.607Z,275
2019-03-27T07:02:19.288Z,281
2019-03-27T07:03:19.970Z,258
2019-03-27T07:04:20.654Z,247
2019-03-27T07:05:21.339Z,247
2019-03-27T07:06:22.028Z,241
2019-03-27T07:07:22.715Z,241
2019-03-27T07:08:23.402Z,230
2019-03-27T07:09:24.093Z,225
2019-03-27T07:10:24.778Z,241
2019-03-27T07:11:25.466Z,258
2019-03-27T07:12:26.154Z,275
2019-03-27T07:13:26.841Z,298
2019-03-27T07:14:27.527Z,348
2019-03-27T07:15:28.212Z,410
2019-03-27T07:16:28.912Z,455
2019-03-27T07:17:29.600Z,489
2019-03-27T07:18:39.919Z,534
2019-03-27T07:19:30.974Z,483
2019-03-27T07:20:31.743Z,410
2019-03-27T07:21:32.344Z,393
2019-03-27T07:22:33.034Z,421
2019-03-27T07:23:33.725Z,483
2019-03-27T07:24:34.420Z,528
2019-03-27T07:25:35.118Z,556
2019-03-27T07:26:35.809Z,523
2019-03-27T07:27:36.508Z,551
2019-03-27T07:28:37.189Z,590
2019-03-27T07:29:37.878Z,585
2019-03-27T07:30:38.564Z,680
2019-03-27T07:31:39.258Z,725
2019-03-27T07:32:39.948Z,579
2019-03-27T07:33:40.640Z,427
2019-03-27T07:34:41.338Z,348
2019-03-27T07:35:42.018Z,360
2019-03-27T07:36:42.706Z,399
2019-03-27T07:37:43.431Z,461
2019-03-27T07:38:44.126Z,450
2019-03-27T07:39:44.811Z,399
2019-03-27T07:40:45.501Z,393
2019-03-27T07:41:46.189Z,348
2019-03-27T07:42:46.876Z,360
2019-03-27T07:43:47.567Z,337
2019-03-27T07:44:48.261Z,427
2019-03-27T07:45:48.916Z,483
2019-03-27T07:46:49.607Z,495
2019-03-27T07:47:50.300Z,455
2019-03-27T07:48:54.155Z,416
2019-03-27T07:49:51.679Z,461
2019-03-27T07:50:52.357Z,421
2019-03-27T07:51:53.047Z,461
2019-03-27T07:52:53.740Z,556
2019-03-27T07:53:54.436Z,590
2019-03-27T07:54:55.123Z,697
2019-03-27T07:55:55.817Z,686
2019-03-27T07:56:56.510Z,641
2019-03-27T07:57:57.184Z,590
2019-03-27T07:58:59.815Z,590
2019-03-27T07:59:58.558Z,697
2019-03-27T08:00:59.250Z,804
2019-03-27T08:01:59.934Z,832
2019-03-27T08:03:00.623Z,781
2019-03-27T08:04:01.312Z,821
2019-03-27T08:05:02.002Z,787
2019-03-27T08:06:02.695Z,815
2019-03-27T08:07:03.385Z,1018
2019-03-27T08:08:04.078Z,1141
2019-03-27T08:09:04.790Z,1018
2019-03-27T08:10:05.456Z,804
2019-03-27T08:11:06.147Z,1001
2019-03-27T08:12:06.841Z,1209
2019-03-27T08:13:07.534Z,1513
2019-03-27T08:14:08.226Z,1372
2019-03-27T08:15:08.922Z,1192
2019-03-27T08:16:09.612Z,1215
2019-03-27T08:17:10.312Z,1833
2019-03-27T08:18:11.013Z,1147
2019-03-27T08:19:11.690Z,1113
2019-03-27T08:20:12.377Z,883
2019-03-27T08:21:13.070Z,933
2019-03-27T08:22:13.732Z,781
2019-03-27T08:23:14.423Z,843
2019-03-27T08:24:15.112Z,871
2019-03-27T08:25:15.803Z,776
2019-03-27T08:26:16.495Z,787
2019-03-27T08:27:17.260Z,838
2019-03-27T08:28:17.870Z,945
2019-03-27T08:29:18.559Z,973
2019-03-27T08:30:19.251Z,950
2019-03-27T08:31:19.944Z,995
2019-03-27T08:32:20.638Z,1102
2019-03-27T08:33:21.328Z,1147
2019-03-27T08:34:22.023Z,1091
2019-03-27T08:35:22.725Z,1091
2019-03-27T08:36:23.407Z,1125
2019-03-27T08:37:24.099Z,1243
2019-03-27T08:38:24.790Z,1119
2019-03-27T08:39:25.488Z,1198
2019-03-27T08:40:26.182Z,1215
2019-03-27T08:41:26.873Z,1198
2019-03-27T08:42:27.568Z,1552
2019-03-27T08:43:28.261Z,1237
2019-03-27T08:44:28.955Z,1479
2019-03-27T08:45:29.647Z,1276
2019-03-27T08:46:30.423Z,1220
2019-03-27T08:47:31.030Z,1237
2019-03-27T08:48:31.723Z,1372
2019-03-27T08:49:32.430Z,1479
2019-03-27T08:50:33.116Z,1507
2019-03-27T08:51:33.812Z,1158
2019-03-27T08:52:34.506Z,1085
2019-03-27T08:53:35.199Z,1091
2019-03-27T08:54:35.895Z,1428
2019-03-27T08:55:36.593Z,1400
2019-03-27T08:56:37.283Z,1299
2019-03-27T08:57:37.979Z,1451
2019-03-27T08:58:38.671Z,1710
2019-03-27T08:59:39.363Z,1293
2019-03-27T09:00:40.027Z,1265
2019-03-27T09:01:40.721Z,1575
2019-03-27T09:02:41.413Z,1726
2019-03-27T09:03:42.104Z,1417
2019-03-27T09:04:42.801Z,1575
2019-03-27T09:05:43.502Z,2058
2019-03-27T09:06:44.197Z,1676
2019-03-27T09:07:44.899Z,1715
2019-03-27T09:08:45.587Z,2053
2019-03-27T09:09:46.279Z,1861
2019-03-27T09:10:47.022Z,2902
2019-03-27T09:11:47.662Z,1918
2019-03-27T09:12:48.357Z,1850
2019-03-27T09:13:49.051Z,1850
2019-03-27T09:14:49.744Z,1704
2019-03-27T09:15:50.439Z,1912
2019-03-27T09:16:51.127Z,1636
2019-03-27T09:17:51.823Z,1726
2019-03-27T09:18:52.517Z,1985
2019-03-27T09:19:53.209Z,1777
2019-03-27T09:20:53.897Z,1901
2019-03-27T09:21:54.590Z,2171
2019-03-27T09:22:55.289Z,2278
2019-03-27T09:23:55.985Z,2098
2019-03-27T09:24:56.676Z,2047
2019-03-27T09:25:57.370Z,1755
2019-03-27T09:26:58.063Z,1822
2019-03-27T09:27:58.755Z,1783
2019-03-27T09:28:59.421Z,1704
2019-03-27T09:30:00.368Z,1670
2019-03-27T09:31:00.798Z,1636
2019-03-27T09:32:01.492Z,1563
2019-03-27T09:33:02.186Z,1625
2019-03-27T09:34:02.882Z,1518
2019-03-27T09:35:03.575Z,1428
2019-03-27T09:36:04.400Z,1485
2019-03-27T09:37:04.967Z,1558
2019-03-27T09:38:05.660Z,1653
2019-03-27T09:39:06.354Z,1580
2019-03-27T09:40:07.046Z,2182
2019-03-27T09:41:07.740Z,2154
2019-03-27T09:42:08.435Z,1918
2019-03-27T09:43:09.132Z,2272
2019-03-27T09:44:09.823Z,2351
2019-03-27T09:45:10.524Z,2300
2019-03-27T09:46:11.217Z,2368
2019-03-27T09:47:11.908Z,1951
2019-03-27T09:48:12.656Z,2610
2019-03-27T09:49:13.357Z,2278
2019-03-27T09:50:14.043Z,2351
2019-03-27T09:51:14.734Z,2379
2019-03-27T09:52:15.430Z,2553
2019-03-27T09:53:16.131Z,2289
2019-03-27T09:54:16.823Z,2700
2019-03-27T09:55:17.519Z,2407
2019-03-27T09:56:19.517Z,2368
2019-03-27T09:57:18.908Z,2469
2019-03-27T09:58:19.595Z,2604
2019-03-27T09:59:20.291Z,2615
2019-03-27T10:00:20.988Z,2621
2019-03-27T10:01:21.688Z,2205
2019-03-27T10:02:22.384Z,2317
2019-03-27T10:03:23.078Z,2300
2019-03-27T10:04:23.772Z,2435
2019-03-27T10:05:24.468Z,2103
2019-03-27T10:06:25.158Z,1974
2019-03-27T10:07:25.859Z,1513
2019-03-27T10:08:26.551Z,1631
2019-03-27T10:09:27.245Z,1552
2019-03-27T10:10:27.941Z,1423
2019-03-27T10:11:28.638Z,1468
2019-03-27T10:12:29.328Z,1648
2019-03-27T10:13:30.021Z,2160
2019-03-27T10:14:30.716Z,1816
2019-03-27T10:15:31.382Z,1535
2019-03-27T10:16:32.077Z,1372
2019-03-27T10:17:32.774Z,1288
2019-03-27T10:18:33.472Z,1518
2019-03-27T10:19:34.167Z,1569
2019-03-27T10:20:34.861Z,1828
2019-03-27T10:21:35.555Z,1355
2019-03-27T10:22:36.262Z,1929
2019-03-27T10:23:36.960Z,1406
2019-03-27T10:24:37.659Z,1631
2019-03-27T10:25:38.359Z,1996
2019-03-27T10:26:42.344Z,1721
2019-03-27T10:27:39.803Z,1333
2019-03-27T10:28:40.563Z,1423
2019-03-27T10:29:41.189Z,1383
2019-03-27T10:30:41.890Z,1411
2019-03-27T10:31:42.593Z,2002
2019-03-27T10:32:43.291Z,2345
2019-03-27T10:33:43.990Z,1271
2019-03-27T10:34:44.687Z,2115
2019-03-27T10:35:45.384Z,1490
2019-03-27T10:36:46.080Z,1141
2019-03-27T10:37:46.780Z,1440
2019-03-27T10:38:47.475Z,1693
2019-03-27T10:39:48.167Z,1541
2019-03-27T10:40:48.861Z,1535
2019-03-27T10:41:49.556Z,1839
2019-03-27T10:42:50.256Z,1749
2019-03-27T10:43:50.947Z,1890
2019-03-27T10:44:51.655Z,1890
2019-03-27T10:45:52.376Z,2064
2019-03-27T10:46:53.024Z,2750
2019-03-27T10:47:53.770Z,2086
2019-03-27T10:48:54.465Z,1243
2019-03-27T10:49:55.166Z,2615
2019-03-27T10:50:55.858Z,2745
2019-03-27T10:51:56.550Z,2418
2019-03-27T10:52:57.247Z,2491
2019-03-27T10:53:57.939Z,2525
2019-03-27T10:54:58.638Z,2036
2019-03-27T10:55:59.325Z,2520
2019-03-27T10:57:00.023Z,2953
2019-03-27T10:58:00.715Z,2767
2019-03-27T10:59:01.430Z,2250
2019-03-27T11:00:02.106Z,2317
2019-03-27T11:01:02.804Z,1845
2019-03-27T11:02:03.495Z,1906
2019-03-27T11:03:04.188Z,1906
2019-03-27T11:04:04.884Z,1586
2019-03-27T11:05:05.581Z,1586
2019-03-27T11:06:06.272Z,1524
2019-03-27T11:07:06.966Z,1440
2019-03-27T11:08:11.097Z,1411
2019-03-27T11:09:08.355Z,1372
2019-03-27T11:10:09.047Z,1608
2019-03-27T11:11:09.741Z,1383
2019-03-27T11:12:10.437Z,1316
2019-03-27T11:13:11.134Z,1226
2019-03-27T11:14:11.828Z,1411
2019-03-27T11:15:12.526Z,1327
2019-03-27T11:16:13.219Z,1361
2019-03-27T11:17:13.916Z,1608
2019-03-27T11:18:14.605Z,1614
2019-03-27T11:19:15.302Z,1620
2019-03-27T11:20:15.963Z,1518
2019-03-27T11:21:16.659Z,1338
2019-03-27T11:22:17.355Z,1383
2019-03-27T11:23:18.048Z,1591
2019-03-27T11:24:18.750Z,1530
2019-03-27T11:25:19.444Z,1411
2019-03-27T11:26:20.138Z,1096
2019-03-27T11:27:20.832Z,1113
2019-03-27T11:28:21.529Z,1136
2019-03-27T11:29:22.225Z,1282
2019-03-27T11:30:22.922Z,1434
2019-03-27T11:31:23.626Z,1524
2019-03-27T11:32:24.357Z,1620
2019-03-27T11:33:25.272Z,1501
2019-03-27T11:34:25.732Z,1518
2019-03-27T11:35:26.400Z,1316
2019-03-27T11:36:27.080Z,1209
2019-03-27T11:37:27.782Z,1136
2019-03-27T11:38:28.472Z,1068
2019-03-27T11:39:29.136Z,1023
2019-03-27T11:40:29.842Z,978
2019-03-27T11:41:30.528Z,911
2019-03-27T11:42:31.368Z,843
2019-03-27T11:43:32.070Z,770
2019-03-27T11:44:32.757Z,708
2019-03-27T11:45:33.458Z,663
2019-03-27T11:46:34.153Z,635
2019-03-27T11:47:34.845Z,624
2019-03-27T11:48:35.535Z,601
2019-03-27T11:49:36.235Z,585
2019-03-27T11:50:44.838Z,585
2019-03-27T11:51:37.613Z,613
2019-03-27T11:52:38.305Z,641
2019-03-27T11:53:38.998Z,703
2019-03-27T11:54:39.690Z,810
2019-03-27T11:55:40.383Z,950
2019-03-27T11:56:41.079Z,1035
2019-03-27T11:57:41.782Z,1096
2019-03-27T11:58:42.471Z,1096
2019-03-27T11:59:53.324Z,1153
2019-03-27T12:00:54.461Z,1305
2019-03-27T12:01:44.557Z,1293
2019-03-27T12:02:45.246Z,1873
2019-03-27T12:03:45.937Z,1732
2019-03-27T12:04:46.634Z,1164
2019-03-27T12:05:47.330Z,1136
2019-03-27T12:06:48.036Z,1080
2019-03-27T12:07:48.730Z,1063
2019-03-27T12:08:50.917Z,1040
2019-03-27T12:09:50.115Z,1068
2019-03-27T12:10:50.820Z,1181
2019-03-27T12:11:51.510Z,1276
2019-03-27T12:12:52.199Z,1378
2019-03-27T12:13:52.894Z,1434
2019-03-27T12:14:53.587Z,1237
2019-03-27T12:15:54.282Z,1186
2019-03-27T12:16:54.985Z,1125
2019-03-27T12:17:55.685Z,1091
2019-03-27T12:18:56.369Z,1063
2019-03-27T12:19:57.080Z,1006
2019-03-27T12:20:59.686Z,978
2019-03-27T12:21:58.469Z,984
2019-03-27T12:22:59.447Z,990
2019-03-27T12:24:00.146Z,1018
2019-03-27T12:25:00.839Z,1035
2019-03-27T12:26:01.532Z,1001
2019-03-27T12:27:02.231Z,978
2019-03-27T12:28:02.927Z,978
2019-03-27T12:29:03.624Z,1080
2019-03-27T12:30:04.289Z,2109
2019-03-27T12:31:04.980Z,1923
2019-03-27T12:32:05.679Z,2210
2019-03-27T12:33:06.372Z,1518
2019-03-27T12:34:07.063Z,1265
2019-03-27T12:35:07.759Z,1125
2019-03-27T12:36:08.450Z,1018
2019-03-27T12:37:09.148Z,978
2019-03-27T12:38:09.844Z,1001
2019-03-27T12:39:10.539Z,1023
2019-03-27T12:40:12.148Z,1704
2019-03-27T12:41:11.921Z,1856
2019-03-27T12:42:12.615Z,1878
2019-03-27T12:43:13.460Z,1850
2019-03-27T12:44:14.151Z,1108
2019-03-27T12:45:14.856Z,1704
2019-03-27T12:46:15.544Z,1681
2019-03-27T12:47:16.236Z,1985
2019-03-27T12:48:16.931Z,1845
2019-03-27T12:49:17.622Z,1940
2019-03-27T12:50:18.322Z,1991
2019-03-27T12:51:19.013Z,1096
2019-03-27T12:52:19.718Z,1957
2019-03-27T12:53:20.411Z,1040
2019-03-27T12:54:21.100Z,961
2019-03-27T12:55:21.795Z,1580
2019-03-27T12:56:22.491Z,1023
2019-03-27T12:57:23.186Z,939
2019-03-27T12:58:23.880Z,990
2019-03-27T12:59:24.577Z,1518
2019-03-27T13:00:25.270Z,1350
2019-03-27T13:01:25.964Z,1299
2019-03-27T13:02:26.660Z,1288
2019-03-27T13:03:27.657Z,1321
2019-03-27T13:04:28.359Z,1372
2019-03-27T13:05:29.050Z,1321
2019-03-27T13:06:29.722Z,1659
2019-03-27T13:07:30.423Z,1665
2019-03-27T13:08:31.099Z,1648
2019-03-27T13:09:31.798Z,1119
2019-03-27T13:10:32.495Z,1018
2019-03-27T13:11:36.385Z,995
2019-03-27T13:12:33.883Z,1057
2019-03-27T13:13:34.586Z,1192
2019-03-27T13:14:35.280Z,1096
2019-03-27T13:15:35.969Z,1096
2019-03-27T13:16:36.666Z,1068
2019-03-27T13:17:37.371Z,1035
2019-03-27T13:18:38.076Z,1237
2019-03-27T13:19:38.769Z,1125
2019-03-27T13:20:39.467Z,1265
2019-03-27T13:21:40.162Z,1102
2019-03-27T13:22:40.864Z,1125
2019-03-27T13:23:41.553Z,1080
2019-03-27T13:24:42.245Z,1051
2019-03-27T13:25:42.939Z,1063
2019-03-27T13:26:43.633Z,961
2019-03-27T13:27:47.393Z,905
2019-03-27T13:28:49.133Z,838
2019-03-27T13:29:45.712Z,793
2019-03-27T13:30:46.406Z,776
2019-03-27T13:31:47.101Z,781
2019-03-27T13:32:47.795Z,787
2019-03-27T13:33:50.315Z,781
2019-03-27T13:34:49.178Z,770
2019-03-27T13:35:49.871Z,770
2019-03-27T13:36:50.572Z,731
2019-03-27T13:37:51.256Z,697
2019-03-27T13:38:51.949Z,680
2019-03-27T13:39:52.646Z,680
2019-03-27T13:40:53.337Z,708
2019-03-27T13:41:54.032Z,736
2019-03-27T13:42:54.723Z,753
2019-03-27T13:43:55.422Z,776
2019-03-27T13:44:56.116Z,815
2019-03-27T13:45:56.806Z,810
2019-03-27T13:46:57.647Z,776
2019-03-27T13:47:58.191Z,776
2019-03-27T13:48:58.887Z,776
2019-03-27T13:49:59.574Z,736
2019-03-27T13:51:00.276Z,720
2019-03-27T13:52:00.957Z,703
2019-03-27T13:53:01.652Z,731
2019-03-27T13:54:02.350Z,759
2019-03-27T13:55:03.042Z,781
2019-03-27T13:56:03.736Z,787
2019-03-27T13:57:04.429Z,787
2019-03-27T13:58:05.124Z,793
2019-03-27T13:59:05.815Z,798
2019-03-27T14:00:06.525Z,770
2019-03-27T14:01:08.926Z,759
2019-03-27T14:02:07.913Z,776
2019-03-27T14:03:08.609Z,714
2019-03-27T14:04:09.304Z,669
2019-03-27T14:05:09.996Z,652
2019-03-27T14:06:10.685Z,652
2019-03-27T14:07:11.384Z,669
2019-03-27T14:08:12.076Z,697
2019-03-27T14:09:12.737Z,736